createdAt,value
2019-02-15T00:00:47.484Z,102266.75
2019-02-15T00:03:16.320Z,102272.51
2019-02-15T00:05:45.093Z,102269.48
2019-02-15T00:08:13.832Z,102268.16
2019-02-15T00:10:42.686Z,102270.38
2019-02-15T00:13:13.586Z,102269.50
2019-02-15T00:15:41.149Z,102274.77
2019-02-15T00:18:17.170Z,102273.05
2019-02-15T00:20:56.037Z,102268.69
2019-02-15T00:23:24.776Z,102267.39
2019-02-15T00:25:53.729Z,102263.45
2019-02-15T00:28:22.616Z,102260.37
2019-02-15T00:30:51.381Z,102261.27
2019-02-15T00:33:20.194Z,102261.72
2019-02-15T00:35:48.958Z,102249.02
2019-02-15T00:38:17.773Z,102254.28
2019-02-15T00:40:46.543Z,102249.48
2019-02-15T00:43:22.082Z,102256.07
2019-02-15T00:45:53.273Z,102260.93
2019-02-15T00:48:22.384Z,102252.61
2019-02-15T00:51:00.183Z,102252.60
2019-02-15T00:53:39.828Z,102248.24
2019-02-15T00:56:19.847Z,102259.69
2019-02-15T00:59:13.928Z,102255.28
2019-02-15T01:02:07.587Z,102254.41
2019-02-15T01:04:54.297Z,102254.41
2019-02-15T01:07:40.492Z,102258.36
2019-02-15T01:10:40.309Z,102253.94
2019-02-15T01:13:12.048Z,102247.81
2019-02-15T01:15:40.877Z,102245.15
2019-02-15T01:18:09.661Z,102248.22
2019-02-15T01:20:38.423Z,102250.83
2019-02-15T01:23:07.175Z,102249.95
2019-02-15T01:25:42.780Z,102251.72
2019-02-15T01:28:17.613Z,102245.99
2019-02-15T01:31:11.143Z,102248.64
2019-02-15T01:33:57.709Z,102246.47
2019-02-15T01:36:48.250Z,102240.75
2019-02-15T01:39:34.130Z,102241.64
2019-02-15T01:42:20.679Z,102240.75
2019-02-15T01:44:54.076Z,102239.44
2019-02-15T01:47:26.486Z,102243.39
2019-02-15T01:49:55.301Z,102238.57
2019-02-15T01:52:24.143Z,102234.63
2019-02-15T01:54:52.962Z,102235.05
2019-02-15T01:57:21.752Z,102228.03
2019-02-15T01:59:50.561Z,102228.89
2019-02-15T02:02:19.852Z,102227.14
2019-02-15T02:04:48.591Z,102228.03
2019-02-15T02:07:17.368Z,102219.66
2019-02-15T02:09:46.108Z,102220.13
2019-02-15T02:12:14.935Z,102219.25
2019-02-15T02:14:44.181Z,102215.29
2019-02-15T02:17:13.049Z,102220.14
2019-02-15T02:19:42.279Z,102229.35
2019-02-15T02:22:11.121Z,102224.95
2019-02-15T02:24:39.864Z,102219.67
2019-02-15T02:27:08.634Z,102214.88
2019-02-15T02:29:37.367Z,102217.51
2019-02-15T02:32:06.224Z,102207.40
2019-02-15T02:34:35.140Z,102211.78
2019-02-15T02:37:04.279Z,102218.37
2019-02-15T02:39:33.132Z,102207.83
2019-02-15T02:42:01.899Z,102207.41
2019-02-15T02:44:31.146Z,102206.52
2019-02-15T02:46:59.907Z,102208.73
2019-02-15T02:49:28.648Z,102205.22
2019-02-15T02:51:57.412Z,102207.84
2019-02-15T02:54:26.301Z,102200.84
2019-02-15T02:56:55.062Z,102193.38
2019-02-15T02:59:23.800Z,102200.42
2019-02-15T03:01:52.563Z,102194.69
2019-02-15T03:04:21.375Z,102194.27
2019-02-15T03:06:50.206Z,102191.62
2019-02-15T03:09:18.981Z,102198.64
2019-02-15T03:11:47.746Z,102202.17
2019-02-15T03:14:16.495Z,102200.43
2019-02-15T03:16:45.300Z,102198.23
2019-02-15T03:19:14.065Z,102201.75
2019-02-15T03:21:42.896Z,102190.80
2019-02-15T03:24:11.709Z,102192.53
2019-02-15T03:26:40.483Z,102192.12
2019-02-15T03:29:09.216Z,102185.55
2019-02-15T03:31:37.998Z,102186.39
2019-02-15T03:34:06.778Z,102184.66
2019-02-15T03:36:52.822Z,102185.55
2019-02-15T03:39:33.170Z,102187.29
2019-02-15T03:42:01.965Z,102187.30
2019-02-15T03:44:30.706Z,102189.94
2019-02-15T03:46:59.538Z,102192.57
2019-02-15T03:49:28.278Z,102194.78
2019-02-15T03:51:57.042Z,102192.58
2019-02-15T03:54:25.845Z,102193.01
2019-02-15T03:56:54.626Z,102185.12
2019-02-15T03:59:23.360Z,102181.17
2019-02-15T04:01:52.169Z,102186.90
2019-02-15T04:04:20.937Z,102189.08
2019-02-15T04:06:49.673Z,102186.02
2019-02-15T04:09:37.726Z,102192.17
2019-02-15T04:12:06.505Z,102192.19
2019-02-15T04:14:35.335Z,102198.30
2019-02-15T04:17:04.085Z,102199.63
2019-02-15T04:19:32.929Z,102197.45
2019-02-15T04:22:01.669Z,102200.09
2019-02-15T04:24:30.508Z,102198.31
2019-02-15T04:26:59.242Z,102203.58
2019-02-15T04:29:28.013Z,102203.59
2019-02-15T04:31:56.820Z,102201.42
2019-02-15T04:34:25.585Z,102203.59
2019-02-15T04:36:54.316Z,102202.28
2019-02-15T04:39:23.146Z,102203.17
2019-02-15T04:41:51.883Z,102200.98
2019-02-15T04:44:20.727Z,102200.13
2019-02-15T04:46:50.171Z,102195.28
2019-02-15T04:49:19.010Z,102196.60
2019-02-15T04:51:47.813Z,102197.03
2019-02-15T04:54:16.653Z,102193.06
2019-02-15T04:56:45.473Z,102191.32
2019-02-15T04:59:14.311Z,102195.69
2019-02-15T05:01:43.135Z,102194.84
2019-02-15T05:04:11.905Z,102197.02
2019-02-15T05:06:40.647Z,102200.11
2019-02-15T05:09:09.420Z,102197.92
2019-02-15T05:11:38.545Z,102193.08
2019-02-15T05:14:07.390Z,102187.83
2019-02-15T05:16:36.165Z,102191.77
2019-02-15T05:19:05.008Z,102189.14
2019-02-15T05:21:33.820Z,102184.34
2019-02-15T05:24:02.647Z,102188.72
2019-02-15T05:26:31.398Z,102184.34
2019-02-15T05:29:00.169Z,102185.66
2019-02-15T05:31:28.907Z,102184.34
2019-02-15T05:33:57.755Z,102183.87
2019-02-15T05:36:26.553Z,102184.32
2019-02-15T05:38:55.344Z,102183.86
2019-02-15T05:41:24.086Z,102179.48
2019-02-15T05:43:52.849Z,102180.80
2019-02-15T05:46:21.597Z,102175.11
2019-02-15T05:48:50.374Z,102181.69
2019-02-15T05:51:19.114Z,102187.38
2019-02-15T05:53:47.874Z,102184.75
2019-02-15T05:56:35.898Z,102184.75
2019-02-15T05:59:04.753Z,102183.86
2019-02-15T06:01:33.481Z,102188.27
2019-02-15T06:04:02.312Z,102186.06
2019-02-15T06:06:31.053Z,102186.06
2019-02-15T06:08:59.818Z,102189.11
2019-02-15T06:11:28.635Z,102190.89
2019-02-15T06:13:57.429Z,102190.89
2019-02-15T06:16:26.230Z,102187.80
2019-02-15T06:18:54.974Z,102184.31
2019-02-15T06:21:23.857Z,102193.06
2019-02-15T06:23:52.773Z,102187.37
2019-02-15T06:26:21.905Z,102186.48
2019-02-15T06:28:51.736Z,102186.48
2019-02-15T06:31:20.575Z,102187.81
2019-02-15T06:33:49.393Z,102194.86
2019-02-15T06:36:18.315Z,102193.54
2019-02-15T06:38:47.072Z,102195.70
2019-02-15T06:41:15.919Z,102195.70
2019-02-15T06:43:44.729Z,102196.59
2019-02-15T06:46:13.572Z,102201.86
2019-02-15T06:48:42.313Z,102199.65
2019-02-15T06:51:11.093Z,102198.34
2019-02-15T06:53:39.825Z,102205.80
2019-02-15T06:56:08.588Z,102205.40
2019-02-15T06:58:45.591Z,102208.45
2019-02-15T07:01:34.493Z,102203.19
2019-02-15T07:04:07.563Z,102200.55
2019-02-15T07:06:36.335Z,102206.23
2019-02-15T07:09:05.556Z,102207.11
2019-02-15T07:11:34.323Z,102208.84
2019-02-15T07:14:03.061Z,102211.91
2019-02-15T07:16:31.943Z,102211.89
2019-02-15T07:19:00.675Z,102215.35
2019-02-15T07:21:29.474Z,102216.66
2019-02-15T07:24:01.305Z,102212.27
2019-02-15T07:26:30.096Z,102214.88
2019-02-15T07:28:58.839Z,102206.06
2019-02-15T07:31:27.607Z,102211.28
2019-02-15T07:33:56.349Z,102209.94
2019-02-15T07:36:25.125Z,102202.43
2019-02-15T07:38:53.889Z,102200.23
2019-02-15T07:41:22.914Z,102198.91
2019-02-15T07:43:51.642Z,102204.16
2019-02-15T07:46:20.414Z,102204.98
2019-02-15T07:48:49.146Z,102203.22
2019-02-15T07:51:17.932Z,102197.94
2019-02-15T07:53:46.712Z,102194.84
2019-02-15T07:56:15.479Z,102192.20
2019-02-15T07:58:44.292Z,102191.73
2019-02-15T08:01:13.063Z,102203.14
2019-02-15T08:03:41.813Z,102196.52
2019-02-15T08:06:30.183Z,102203.08
2019-02-15T08:08:59.231Z,102198.67
2019-02-15T08:11:28.035Z,102195.11
2019-02-15T08:13:56.916Z,102186.25
2019-02-15T08:16:25.702Z,102182.23
2019-02-15T08:18:54.442Z,102186.16
2019-02-15T08:21:23.227Z,102185.23
2019-02-15T08:23:52.227Z,102182.55
2019-02-15T08:26:21.008Z,102183.34
2019-02-15T08:28:49.822Z,102187.21
2019-02-15T08:31:18.674Z,102188.03
2019-02-15T08:33:47.436Z,102184.02
2019-02-15T08:36:16.274Z,102183.53
2019-02-15T08:38:45.090Z,102187.80
2019-02-15T08:41:14.016Z,102185.97
2019-02-15T08:43:42.871Z,102185.50
2019-02-15T08:46:11.697Z,102188.95
2019-02-15T08:48:46.198Z,102187.57
2019-02-15T08:51:11.279Z,102185.27
2019-02-15T08:53:40.042Z,102179.48
2019-02-15T08:56:08.859Z,102182.97
2019-02-15T08:58:38.939Z,102183.33
2019-02-15T09:01:07.764Z,102180.58
2019-02-15T09:03:36.556Z,102176.11
2019-02-15T09:06:05.302Z,102179.54
2019-02-15T09:08:34.166Z,102177.30
2019-02-15T09:11:02.930Z,102184.62
2019-02-15T09:13:31.844Z,102179.29
2019-02-15T09:16:09.822Z,102177.37
2019-02-15T09:18:31.309Z,102173.38
2019-02-15T09:21:00.215Z,102178.16
2019-02-15T09:23:29.057Z,102177.17
2019-02-15T09:25:57.813Z,102178.91
2019-02-15T09:28:44.144Z,102176.69
2019-02-15T09:31:12.973Z,102175.36
2019-02-15T09:33:41.845Z,102174.45
2019-02-15T09:36:10.600Z,102172.22
2019-02-15T09:38:39.379Z,102171.32
2019-02-15T09:41:08.124Z,102171.27
2019-02-15T09:43:36.894Z,102170.80
2019-02-15T09:46:05.728Z,102167.66
2019-02-15T09:48:34.516Z,102160.14
2019-02-15T09:51:03.352Z,102160.98
2019-02-15T09:53:32.271Z,102158.69
2019-02-15T09:56:01.177Z,102155.11
2019-02-15T09:58:30.227Z,102152.88
2019-02-15T10:00:59.073Z,102150.62
2019-02-15T10:03:27.970Z,102146.19
2019-02-15T10:05:56.730Z,102143.48
2019-02-15T10:08:25.646Z,102144.73
2019-02-15T10:10:54.417Z,102139.38
2019-02-15T10:13:23.261Z,102140.65
2019-02-15T10:15:52.082Z,102140.62
2019-02-15T10:18:20.896Z,102140.59
2019-02-15T10:20:49.730Z,102136.09
2019-02-15T10:23:18.583Z,102141.83
2019-02-15T10:25:47.347Z,102141.27
2019-02-15T10:28:16.116Z,102142.13
2019-02-15T10:30:44.975Z,102145.59
2019-02-15T10:33:13.715Z,102139.33
2019-02-15T10:35:42.538Z,102135.70
2019-02-15T10:38:11.298Z,102138.26
2019-02-15T10:40:40.089Z,102132.88
2019-02-15T10:43:08.824Z,102133.25
2019-02-15T10:45:37.829Z,102127.89
2019-02-15T10:48:06.585Z,102129.13
2019-02-15T10:50:35.346Z,102128.14
2019-02-15T10:53:04.118Z,102124.55
2019-02-15T10:55:32.958Z,102123.16
2019-02-15T10:58:01.722Z,102116.91
2019-02-15T11:00:30.489Z,102103.67
2019-02-15T11:02:59.296Z,102108.91
2019-02-15T11:05:28.076Z,102109.72
2019-02-15T11:07:56.810Z,102101.33
2019-02-15T11:10:25.572Z,102096.44
2019-02-15T11:12:54.307Z,102093.77
2019-02-15T11:15:23.114Z,102091.11
2019-02-15T11:17:51.879Z,102088.87
2019-02-15T11:20:20.716Z,102082.25
2019-02-15T11:22:49.457Z,102079.59
2019-02-15T11:25:18.230Z,102081.39
2019-02-15T11:27:47.049Z,102075.19
2019-02-15T11:30:15.892Z,102073.05
2019-02-15T11:32:44.638Z,102070.39
2019-02-15T11:35:13.408Z,102060.66
2019-02-15T11:37:42.221Z,102060.69
2019-02-15T11:40:12.428Z,102054.61
2019-02-15T11:42:41.289Z,102051.11
2019-02-15T11:45:11.154Z,102047.17
2019-02-15T11:47:39.907Z,102044.56
2019-02-15T11:50:10.299Z,102047.14
2019-02-15T11:52:38.538Z,102044.97
2019-02-15T11:55:07.794Z,102035.33
2019-02-15T11:57:36.601Z,102039.30
2019-02-15T12:00:13.830Z,102030.91
2019-02-15T12:02:36.954Z,102035.73
2019-02-15T12:05:06.856Z,102034.38
2019-02-15T12:07:35.578Z,102034.38
2019-02-15T12:10:04.591Z,102031.25
2019-02-15T12:12:33.342Z,102026.36
2019-02-15T12:15:02.133Z,102028.53
2019-02-15T12:17:30.907Z,102022.80
2019-02-15T12:19:59.686Z,102021.03
2019-02-15T12:22:28.744Z,102015.69
2019-02-15T12:24:57.605Z,102016.17
2019-02-15T12:27:26.987Z,102016.54
2019-02-15T12:29:55.837Z,102016.47
2019-02-15T12:32:24.721Z,102016.03
2019-02-15T12:34:53.486Z,102013.30
2019-02-15T12:37:22.231Z,102007.89
2019-02-15T12:39:51.001Z,102002.13
2019-02-15T12:42:19.758Z,102001.72
2019-02-15T12:44:48.534Z,101995.50
2019-02-15T12:47:17.311Z,101991.92
2019-02-15T12:49:46.150Z,101983.47
2019-02-15T12:52:14.961Z,101976.84
2019-02-15T12:54:43.810Z,101977.28
2019-02-15T12:57:12.620Z,101975.48
2019-02-15T12:59:41.393Z,101975.37
2019-02-15T13:02:10.145Z,101969.98
2019-02-15T13:04:38.934Z,101963.65
2019-02-15T13:07:07.680Z,101963.97
2019-02-15T13:09:36.448Z,101962.16
2019-02-15T13:12:05.268Z,101961.25
2019-02-15T13:14:34.024Z,101957.11
2019-02-15T13:17:02.812Z,101954.46
2019-02-15T13:19:31.700Z,101947.83
2019-02-15T13:22:00.533Z,101949.56
2019-02-15T13:24:29.340Z,101942.37
2019-02-15T13:26:58.244Z,101937.98
2019-02-15T13:29:27.080Z,101933.94
2019-02-15T13:31:56.028Z,101927.42
2019-02-15T13:34:24.781Z,101925.18
2019-02-15T13:36:53.620Z,101926.51
2019-02-15T13:39:22.436Z,101923.41
2019-02-15T13:41:51.278Z,101917.59
2019-02-15T13:44:20.034Z,101909.59
2019-02-15T13:46:48.807Z,101912.99
2019-02-15T13:49:17.621Z,101907.25
2019-02-15T13:51:46.398Z,101908.05
2019-02-15T13:54:15.138Z,101903.14
2019-02-15T13:56:43.974Z,101899.08
2019-02-15T13:59:33.585Z,101892.77
2019-02-15T14:02:02.377Z,101892.68
2019-02-15T14:04:31.467Z,101891.18
2019-02-15T14:07:00.238Z,101889.77
2019-02-15T14:09:28.984Z,101887.33
2019-02-15T14:11:57.769Z,101881.00
2019-02-15T14:14:26.520Z,101879.11
2019-02-15T14:16:55.337Z,101878.66
2019-02-15T14:19:24.084Z,101881.22
2019-02-15T14:21:52.857Z,101873.57
2019-02-15T14:24:21.592Z,101867.77
2019-02-15T14:26:50.447Z,101871.27
2019-02-15T14:29:19.181Z,101869.55
2019-02-15T14:31:47.975Z,101869.36
2019-02-15T14:34:16.765Z,101868.03
2019-02-15T14:36:45.739Z,101864.98
2019-02-15T14:39:14.563Z,101864.98
2019-02-15T14:41:43.411Z,101861.40
2019-02-15T14:44:12.149Z,101855.55
2019-02-15T14:46:40.985Z,101855.45
2019-02-15T14:49:09.821Z,101851.33
2019-02-15T14:51:38.711Z,101853.45
2019-02-15T14:54:07.529Z,101850.59
2019-02-15T14:56:41.854Z,101845.98
2019-02-15T14:59:10.609Z,101843.19
2019-02-15T15:01:39.369Z,101838.11
2019-02-15T15:04:08.126Z,101836.94
2019-02-15T15:06:36.909Z,101838.05
2019-02-15T15:09:06.410Z,101831.94
2019-02-15T15:11:35.169Z,101835.56
2019-02-15T15:14:04.066Z,101827.22
2019-02-15T15:16:32.851Z,101832.99
2019-02-15T15:19:01.607Z,101828.57
2019-02-15T15:21:30.385Z,101823.32
2019-02-15T15:23:59.328Z,101818.09
2019-02-15T15:26:28.111Z,101820.81
2019-02-15T15:28:56.859Z,101811.55
2019-02-15T15:31:25.691Z,101813.53
2019-02-15T15:33:54.449Z,101804.67
2019-02-15T15:36:23.239Z,101807.05
2019-02-15T15:38:51.984Z,101802.03
2019-02-15T15:41:20.749Z,101805.41
2019-02-15T15:43:49.507Z,101799.98
2019-02-15T15:46:18.502Z,101795.21
2019-02-15T15:48:47.238Z,101797.46
2019-02-15T15:51:16.171Z,101793.46
2019-02-15T15:53:45.029Z,101792.65
2019-02-15T15:56:13.862Z,101792.55
2019-02-15T15:58:42.681Z,101791.92
2019-02-15T16:01:11.538Z,101791.77
2019-02-15T16:03:40.275Z,101788.48
2019-02-15T16:06:09.025Z,101794.86
2019-02-15T16:08:37.797Z,101787.14
2019-02-15T16:11:06.619Z,101786.88
2019-02-15T16:13:36.365Z,101787.47
2019-02-15T16:16:05.135Z,101778.38
2019-02-15T16:18:35.166Z,101780.72
2019-02-15T16:21:04.061Z,101785.78
2019-02-15T16:23:32.923Z,101786.39
2019-02-15T16:26:01.671Z,101782.95
2019-02-15T16:28:30.505Z,101784.86
2019-02-15T16:30:59.345Z,101785.87
2019-02-15T16:33:28.226Z,101790.88
2019-02-15T16:35:56.991Z,101785.23
2019-02-15T16:38:25.826Z,101788.89
2019-02-15T16:40:59.793Z,101791.19
2019-02-15T16:43:28.662Z,101786.02
2019-02-15T16:45:57.413Z,101787.47
2019-02-15T16:48:26.316Z,101788.41
2019-02-15T16:50:55.064Z,101785.44
2019-02-15T16:53:23.831Z,101782.47
2019-02-15T16:55:52.651Z,101786.98
2019-02-15T16:58:21.409Z,101782.20
2019-02-15T17:00:50.231Z,101778.76
2019-02-15T17:03:19.065Z,101779.28
2019-02-15T17:05:47.894Z,101777.64
2019-02-15T17:08:16.667Z,101784.75
2019-02-15T17:10:45.426Z,101784.39
2019-02-15T17:13:14.265Z,101785.27
2019-02-15T17:15:43.016Z,101784.52
2019-02-15T17:18:11.871Z,101773.56
2019-02-15T17:20:40.754Z,101780.22
2019-02-15T17:23:09.557Z,101778.54
2019-02-15T17:25:38.298Z,101772.92
2019-02-15T17:28:07.076Z,101773.81
2019-02-15T17:30:35.824Z,101770.80
2019-02-15T17:33:04.593Z,101772.61
2019-02-15T17:35:33.336Z,101774.89
2019-02-15T17:38:02.183Z,101774.97
2019-02-15T17:40:31.076Z,101766.67
2019-02-15T17:43:00.013Z,101770.72
2019-02-15T17:45:28.837Z,101770.23
2019-02-15T17:47:57.651Z,101769.47
2019-02-15T17:50:26.403Z,101766.02
2019-02-15T17:52:55.255Z,101759.89
2019-02-15T17:55:24.073Z,101770.95
2019-02-15T17:57:52.843Z,101768.78
2019-02-15T18:00:26.031Z,101767.50
2019-02-15T18:02:54.683Z,101764.02
2019-02-15T18:05:23.429Z,101761.45
2019-02-15T18:07:52.276Z,101761.92
2019-02-15T18:10:21.045Z,101757.99
2019-02-15T18:12:49.825Z,101756.75
2019-02-15T18:15:18.613Z,101755.46
2019-02-15T18:17:47.407Z,101761.64
2019-02-15T18:20:16.452Z,101760.35
2019-02-15T18:22:45.239Z,101755.14
2019-02-15T18:25:13.977Z,101752.97
2019-02-15T18:27:42.748Z,101750.80
2019-02-15T18:30:30.913Z,101760.10
2019-02-15T18:32:59.674Z,101748.23
2019-02-15T18:35:28.426Z,101749.59
2019-02-15T18:37:57.201Z,101749.59
2019-02-15T18:40:26.014Z,101744.38
2019-02-15T18:42:54.863Z,101742.66
2019-02-15T18:45:23.979Z,101738.25
2019-02-15T18:47:52.748Z,101745.37
2019-02-15T18:50:21.481Z,101743.21
2019-02-15T18:52:50.357Z,101737.52
2019-02-15T18:55:19.089Z,101743.25
2019-02-15T18:57:48.042Z,101741.52
2019-02-15T19:00:17.024Z,101734.06
2019-02-15T19:02:45.977Z,101734.11
2019-02-15T19:05:14.852Z,101731.50
2019-02-15T19:07:43.664Z,101724.92
2019-02-15T19:10:14.627Z,101720.55
2019-02-15T19:12:43.488Z,101721.91
2019-02-15T19:15:13.249Z,101725.47
2019-02-15T19:17:42.208Z,101716.69
2019-02-15T19:20:11.567Z,101721.10
2019-02-15T19:22:40.406Z,101709.72
2019-02-15T19:25:10.812Z,101712.84
2019-02-15T19:27:38.941Z,101702.70
2019-02-15T19:30:13.247Z,101706.74
2019-02-15T19:32:44.663Z,101708.58
2019-02-15T19:35:13.540Z,101701.97
2019-02-15T19:37:42.447Z,101702.00
2019-02-15T19:40:18.320Z,101705.05
2019-02-15T19:42:48.887Z,101698.92
2019-02-15T19:45:17.798Z,101697.60
2019-02-15T19:47:46.545Z,101698.15
2019-02-15T19:50:16.344Z,101698.59
2019-02-15T19:52:48.598Z,101693.74
2019-02-15T19:55:17.523Z,101690.30
2019-02-15T19:57:46.348Z,101691.61
2019-02-15T20:00:22.854Z,101687.69
2019-02-15T20:02:53.686Z,101686.40
2019-02-15T20:05:22.554Z,101688.16
2019-02-15T20:07:54.345Z,101685.99
2019-02-15T20:10:26.613Z,101683.87
2019-02-15T20:12:55.429Z,101685.19
2019-02-15T20:15:24.665Z,101680.38
2019-02-15T20:17:53.389Z,101676.86
2019-02-15T20:20:25.809Z,101677.80
2019-02-15T20:22:55.187Z,101679.12
2019-02-15T20:25:24.112Z,101672.56
2019-02-15T20:27:52.929Z,101671.71
2019-02-15T20:30:21.790Z,101673.95
2019-02-15T20:32:50.529Z,101670.94
2019-02-15T20:35:26.460Z,101678.87
2019-02-15T20:37:55.294Z,101674.06
2019-02-15T20:40:24.074Z,101667.92
2019-02-15T20:42:57.060Z,101666.20
2019-02-15T20:45:22.501Z,101671.52
2019-02-15T20:47:54.347Z,101665.46
2019-02-15T20:50:25.977Z,101660.65
2019-02-15T20:52:54.797Z,101664.14
2019-02-15T20:55:23.572Z,101665.02
2019-02-15T20:57:52.317Z,101668.10
2019-02-15T21:00:23.117Z,101662.45
2019-02-15T21:02:51.874Z,101662.05
2019-02-15T21:05:21.057Z,101656.39
2019-02-15T21:07:49.877Z,101659.54
2019-02-15T21:10:18.673Z,101657.34
2019-02-15T21:12:47.851Z,101656.02
2019-02-15T21:15:19.757Z,101660.86
2019-02-15T21:17:48.767Z,101658.28
2019-02-15T21:20:17.567Z,101659.64
2019-02-15T21:22:46.344Z,101659.71
2019-02-15T21:25:15.292Z,101657.07
2019-02-15T21:27:44.059Z,101651.82
2019-02-15T21:30:16.029Z,101655.85
2019-02-15T21:32:44.893Z,101650.13
2019-02-15T21:35:13.733Z,101644.91
2019-02-15T21:37:42.490Z,101649.31
2019-02-15T21:40:13.400Z,101648.06
2019-02-15T21:42:44.374Z,101643.22
2019-02-15T21:45:15.691Z,101642.81
2019-02-15T21:47:44.492Z,101641.97
2019-02-15T21:50:17.169Z,101635.37
2019-02-15T21:52:44.791Z,101640.72
2019-02-15T21:55:17.717Z,101634.11
2019-02-15T21:57:48.711Z,101632.42
2019-02-15T22:00:18.513Z,101625.82
2019-02-15T22:02:47.287Z,101621.89
2019-02-15T22:05:20.301Z,101616.23
2019-02-15T22:07:49.110Z,101619.83
2019-02-15T22:10:20.665Z,101619.42
2019-02-15T22:12:49.439Z,101616.84
2019-02-15T22:15:18.262Z,101613.80
2019-02-15T22:17:49.293Z,101613.39
2019-02-15T22:20:26.307Z,101605.88
2019-02-15T22:22:48.692Z,101608.15
2019-02-15T22:25:17.429Z,101597.22
2019-02-15T22:27:46.208Z,101599.85
2019-02-15T22:30:24.547Z,101606.86
2019-02-15T22:32:53.309Z,101603.88
2019-02-15T22:35:27.661Z,101599.04
2019-02-15T22:37:56.503Z,101600.39
2019-02-15T22:40:36.153Z,101597.78
2019-02-15T22:43:08.156Z,101593.35
2019-02-15T22:45:36.892Z,101594.27
2019-02-15T22:48:05.663Z,101588.20
2019-02-15T22:50:36.326Z,101592.16
2019-02-15T22:53:05.042Z,101587.77
2019-02-15T22:55:33.786Z,101586.07
2019-02-15T22:58:04.574Z,101589.63
2019-02-15T23:00:56.479Z,101580.45
2019-02-15T23:03:26.515Z,101577.84
2019-02-15T23:05:55.444Z,101563.39
2019-02-15T23:08:24.251Z,101577.88
2019-02-15T23:10:52.992Z,101571.72
2019-02-15T23:13:21.773Z,101579.63
2019-02-15T23:15:50.510Z,101577.00
2019-02-15T23:18:19.326Z,101573.07
2019-02-15T23:20:48.140Z,101572.73
2019-02-15T23:23:17.115Z,101568.33
2019-02-15T23:25:45.930Z,101572.29
2019-02-15T23:28:14.766Z,101565.31
2019-02-15T23:30:43.573Z,101565.78
2019-02-15T23:33:12.343Z,101569.78
2019-02-15T23:35:41.104Z,101565.00
2019-02-15T23:38:09.939Z,101565.88
2019-02-15T23:40:38.721Z,101566.80
2019-02-15T23:43:07.635Z,101558.87
2019-02-15T23:45:36.533Z,101566.39
2019-02-15T23:48:05.459Z,101563.31
2019-02-15T23:50:34.214Z,101558.50
2019-02-15T23:53:02.988Z,101561.11
2019-02-15T23:55:31.729Z,101554.08
2019-02-15T23:58:00.505Z,101555.86
